Home
 
Morpeth (BP) AWS
Home
Latest Observations
 
Search
 
 
Information
  • Contact
  • Copyright Notice
  • Disclaimer
  • Morpeth (Berry Park), NSW
    Automatic Weather Station
    Latitude: 32°44'SLongitude: 151°40'EElevation: 8.0m

    Last update 2:02am local on Wednesday 20 September 2017

    Date/Time
    EST
    Temp Dew
    Point
    Rel
    Hum
    Max
    Temp
    MaxT
    Time
    Min
    Temp
    MinT
    Time
    Wind Max Wind Gust Rain
    since 9am
    Wind Dir Speed Gust Max
    Dir
    Max Max
    Time
    °C °C % °C   °C   kts kts kts mm
    20-Sep 10:00 17.6 6.6 49 17.6 09:59 15.3 09:00 0.0
    20-Sep 09:00 15.3 4.9 50 27.6 12:59 2.6 06:08 0.0
    20-Sep 08:00 11.5 4.7 63 27.6 12:59 2.6 06:08 0.0
    20-Sep 07:00 7.4 5.5 88 27.6 12:59 2.6 06:08 0.0
    20-Sep 06:00 3.1 2.3 95 27.6 12:59 2.7 05:14 0.0
    20-Sep 05:00 3.2 2.8 98 27.6 12:59 3.0 04:56 0.0
    20-Sep 04:00 4.6 4.3 98 27.6 12:59 3.2 03:06 0.0
    20-Sep 03:00 3.5 2.5 93 27.6 12:59 3.4 02:59 0.0
    20-Sep 02:00 6.7 5.6 93 27.6 12:59 6.1 01:35 0.0
    20-Sep 01:00 8.0 5.5 84 27.6 12:59 7.3 00:05 0.0
    20-Sep 00:00 7.6 5.7 88 27.6 12:59 7.5 00:00 0.0
    19-Sep 23:00 10.0 6.8 81 27.6 12:59 9.9 22:52 0.0
    19-Sep 22:00 11.8 6.2 69 27.6 12:59 11.6 21:02 0.0
    19-Sep 21:00 12.0 7.3 73 27.6 12:59 11.9 21:00 0.0
    19-Sep 20:00 13.3 7.9 70 27.6 12:59 13.0 19:28 0.0
    19-Sep 19:00 15.0 8.0 63 27.6 12:59 14.8 18:48 0.0
    19-Sep 18:00 15.6 7.8 60 27.6 12:59 15.5 18:00 0.0
    19-Sep 17:00 19.5 7.9 47 27.6 12:59 19.4 16:59 0.0
    19-Sep 16:00 21.2 8.9 45 27.6 12:59 20.9 15:56 0.0
    19-Sep 15:00 26.5 -5.8 12 27.6 12:59 23.0 09:00 0.0
    19-Sep 14:00 27.0 -2.1 15 27.6 12:59 23.0 09:00 0.0
    19-Sep 13:00 27.6 2.5 20 27.6 12:59 23.0 09:00 0.0
    19-Sep 12:00 26.8 2.2 21 27.1 11:52 23.0 09:00 0.0
    19-Sep 11:00 26.2 1.7 21 26.2 10:59 23.0 09:00 0.0
    19-Sep 10:00 24.8 5.2 29 25.3 09:51 23.0 09:00 0.0
    19-Sep 09:00 23.0 7.6 37 26.8 14:47 5.3 06:07 0.0
    19-Sep 08:00 14.5 10.0 74 26.8 14:47 5.3 06:07 0.0
    19-Sep 07:00 8.4 7.4 94 26.8 14:47 5.3 06:07 0.0
    19-Sep 06:00 5.9 5.1 95 26.8 14:47 5.8 05:55 0.0
    19-Sep 05:00 7.4 6.5 94 26.8 14:47 6.9 03:52 0.0
    19-Sep 04:00 7.4 6.7 95 26.8 14:47 6.9 03:52 0.0
    19-Sep 03:00 8.5 7.1 91 26.8 14:47 8.4 03:00 0.0
    19-Sep 02:00 10.0 6.5 79 26.8 14:47 9.9 02:00 0.0
    19-Sep 01:00 12.9 7.8 71 26.8 14:47 12.8 00:32 0.0
    19-Sep 00:00 13.4 8.2 71 26.8 14:47 13.3 23:59 0.0
    18-Sep 23:00 13.9 8.1 68 26.8 14:47 13.6 09:00 0.0
    18-Sep 22:00 15.5 8.3 62 26.8 14:47 13.6 09:00 0.0
    18-Sep 21:00 17.5 8.4 55 26.8 14:47 13.6 09:00 0.0
    18-Sep 20:00 16.9 9.1 60 26.8 14:47 13.6 09:00 0.0
    18-Sep 19:00 18.6 9.6 56 26.8 14:47 13.6 09:00 0.0
    18-Sep 18:00 18.4 10.0 58 26.8 14:47 13.6 09:00 0.0
    18-Sep 17:00 23.8 3.3 27 26.8 14:47 13.6 09:00 0.0
    18-Sep 16:00 26.2 0.7 19 26.8 14:47 13.6 09:00 0.0
    18-Sep 15:00 26.6 -0.3 17 26.8 14:47 13.6 09:00 0.0
    18-Sep 14:00 26.5 -0.4 17 26.5 13:58 13.6 09:00 0.0
    18-Sep 13:00 25.0 2.9 24 25.0 12:56 13.6 09:00 0.0
    18-Sep 12:00 22.9 5.9 33 22.9 11:59 13.6 09:00 0.0
    18-Sep 11:00 19.3 8.5 50 19.5 10:51 13.6 09:00 0.0
    18-Sep 10:00 16.8 8.0 56 16.8 09:56 13.6 09:00 0.0
    18-Sep 09:00 13.7 7.5 66 19.7 13:02 1.0 05:58 0.0
    18-Sep 08:00 9.6 7.5 87 19.7 13:02 1.0 05:58 0.0
    18-Sep 07:00 5.0 4.9 99 19.7 13:02 1.0 05:58 0.0
    18-Sep 06:00 1.2 1.1 99 19.7 13:02 1.0 05:58 0.0
    18-Sep 05:00 2.9 2.7 99 19.7 13:02 2.0 04:23 0.0
    18-Sep 04:00 3.3 3.1 98 19.7 13:02 2.8 03:40 0.0
    18-Sep 03:00 3.1 2.3 95 19.7 13:02 3.0 03:00 0.0
    18-Sep 02:00 5.0 4.0 93 19.7 13:02 4.9 01:54 0.0
    18-Sep 01:00 7.7 5.6 87 19.7 13:02 6.9 00:23 0.0
    18-Sep 00:00 7.2 5.1 87 19.7 13:02 7.1 23:59 0.0
    17-Sep 23:00 8.1 5.8 85 19.7 13:02 7.8 22:48 0.0
    17-Sep 22:00 9.0 5.6 80 19.7 13:02 8.9 21:58 0.0
    17-Sep 21:00 9.7 5.9 77 19.7 13:02 9.6 20:59 0.0
    17-Sep 20:00 10.0 5.6 74 19.7 13:02 9.9 19:59 0.0
    17-Sep 19:00 11.8 5.9 67 19.7 13:02 11.2 18:36 0.0
    17-Sep 18:00 11.8 5.6 66 19.7 13:02 11.8 18:00 0.0
    17-Sep 17:00 15.7 5.1 49 19.7 13:02 14.6 09:00 0.0
    17-Sep 16:00 17.6 4.9 43 19.7 13:02 14.6 09:00 0.0
    17-Sep 15:00 19.0 4.5 39 19.7 13:02 14.6 09:00 0.0
    17-Sep 14:00 19.2 4.2 37 19.7 13:02 14.6 09:00 0.0
    17-Sep 13:00 19.4 5.1 39 19.5 12:13 14.6 09:00 0.0
    17-Sep 12:00 19.2 3.8 36 19.2 11:59 14.6 09:00 0.0
    17-Sep 11:00 18.0 2.7 36 19.0 10:34 14.6 09:00 0.0

    Wednesday, 20 September 2017
    © 2017 Tim Grugeon